sensor_id;sensor_type;location;lat;lon;timestamp;temperature;humidity
31799;DHT22;18374;51.136;3.502;2022-07-18T00:01:57;17.30;99.90
31799;DHT22;18374;51.136;3.502;2022-07-18T00:04:27;17.30;99.90
31799;DHT22;18374;51.136;3.502;2022-07-18T00:06:55;17.20;99.90
31799;DHT22;18374;51.136;3.502;2022-07-18T00:09:24;17.30;99.90
31799;DHT22;18374;51.136;3.502;2022-07-18T00:11:52;17.20;99.90
31799;DHT22;18374;51.136;3.502;2022-07-18T00:14:21;17.20;99.90
31799;DHT22;18374;51.136;3.502;2022-07-18T00:16:50;17.20;99.90
31799;DHT22;18374;51.136;3.502;2022-07-18T00:19:18;17.20;99.90
31799;DHT22;18374;51.136;3.502;2022-07-18T00:21:45;17.10;99.90
31799;DHT22;18374;51.136;3.502;2022-07-18T00:24:13;17.10;99.90
31799;DHT22;18374;51.136;3.502;2022-07-18T00:26:41;17.00;99.90
31799;DHT22;18374;51.136;3.502;2022-07-18T00:29:09;16.90;99.90
31799;DHT22;18374;51.136;3.502;2022-07-18T00:31:37;16.80;99.90
31799;DHT22;18374;51.136;3.502;2022-07-18T00:34:05;16.70;99.90
31799;DHT22;18374;51.136;3.502;2022-07-18T00:36:33;16.70;99.90
31799;DHT22;18374;51.136;3.502;2022-07-18T00:39:01;16.60;99.90
31799;DHT22;18374;51.136;3.502;2022-07-18T00:41:30;16.60;99.90
31799;DHT22;18374;51.136;3.502;2022-07-18T00:43:57;16.70;99.90
31799;DHT22;18374;51.136;3.502;2022-07-18T00:46:26;16.70;99.90
31799;DHT22;18374;51.136;3.502;2022-07-18T00:48:56;16.50;99.90
31799;DHT22;18374;51.136;3.502;2022-07-18T00:51:24;16.50;99.90
31799;DHT22;18374;51.136;3.502;2022-07-18T00:53:52;16.40;99.90
31799;DHT22;18374;51.136;3.502;2022-07-18T00:56:20;16.40;99.90
31799;DHT22;18374;51.136;3.502;2022-07-18T00:58:48;16.40;99.90
31799;DHT22;18374;51.136;3.502;2022-07-18T01:01:16;16.40;99.90
31799;DHT22;18374;51.136;3.502;2022-07-18T01:04:02;16.40;99.90
31799;DHT22;18374;51.136;3.502;2022-07-18T01:06:30;16.30;99.90
31799;DHT22;18374;51.136;3.502;2022-07-18T01:08:58;16.30;99.90
31799;DHT22;18374;51.136;3.502;2022-07-18T01:11:26;16.30;99.90
31799;DHT22;18374;51.136;3.502;2022-07-18T01:13:54;16.20;99.90
31799;DHT22;18374;51.136;3.502;2022-07-18T01:16:22;16.20;99.90
31799;DHT22;18374;51.136;3.502;2022-07-18T01:18:50;16.10;99.90
31799;DHT22;18374;51.136;3.502;2022-07-18T01:21:18;16.10;99.90
31799;DHT22;18374;51.136;3.502;2022-07-18T01:23:46;16.10;99.90
31799;DHT22;18374;51.136;3.502;2022-07-18T01:26:15;16.10;99.90
31799;DHT22;18374;51.136;3.502;2022-07-18T01:28:44;16.10;99.90
31799;DHT22;18374;51.136;3.502;2022-07-18T01:31:13;16.00;99.90
31799;DHT22;18374;51.136;3.502;2022-07-18T01:33:41;15.90;99.90
31799;DHT22;18374;51.136;3.502;2022-07-18T01:36:08;15.90;99.90
31799;DHT22;18374;51.136;3.502;2022-07-18T01:38:37;15.90;99.90
31799;DHT22;18374;51.136;3.502;2022-07-18T01:41:05;15.90;99.90
31799;DHT22;18374;51.136;3.502;2022-07-18T01:43:33;16.00;99.90
31799;DHT22;18374;51.136;3.502;2022-07-18T01:46:01;15.90;99.90
31799;DHT22;18374;51.136;3.502;2022-07-18T01:48:30;15.90;99.90
31799;DHT22;18374;51.136;3.502;2022-07-18T01:50:58;15.80;99.90
31799;DHT22;18374;51.136;3.502;2022-07-18T01:53:25;15.80;99.90
31799;DHT22;18374;51.136;3.502;2022-07-18T01:55:53;15.80;99.90
31799;DHT22;18374;51.136;3.502;2022-07-18T01:58:21;15.90;99.90
31799;DHT22;18374;51.136;3.502;2022-07-18T02:00:49;15.80;99.90
31799;DHT22;18374;51.136;3.502;2022-07-18T02:03:16;15.80;99.90
31799;DHT22;18374;51.136;3.502;2022-07-18T02:05:44;15.70;99.90
31799;DHT22;18374;51.136;3.502;2022-07-18T02:08:12;15.70;99.90
31799;DHT22;18374;51.136;3.502;2022-07-18T02:10:40;15.70;99.90
31799;DHT22;18374;51.136;3.502;2022-07-18T02:13:08;15.60;99.90
31799;DHT22;18374;51.136;3.502;2022-07-18T02:15:36;15.60;99.90
31799;DHT22;18374;51.136;3.502;2022-07-18T02:18:04;15.60;99.90
31799;DHT22;18374;51.136;3.502;2022-07-18T02:20:32;15.60;99.90
31799;DHT22;18374;51.136;3.502;2022-07-18T02:23:00;15.50;99.90
31799;DHT22;18374;51.136;3.502;2022-07-18T02:25:28;15.50;99.90
31799;DHT22;18374;51.136;3.502;2022-07-18T02:27:56;15.50;99.90
31799;DHT22;18374;51.136;3.502;2022-07-18T02:30:23;15.40;99.90
31799;DHT22;18374;51.136;3.502;2022-07-18T02:32:51;15.50;99.90
31799;DHT22;18374;51.136;3.502;2022-07-18T02:35:19;15.50;99.90
31799;DHT22;18374;51.136;3.502;2022-07-18T02:37:47;15.50;99.90
31799;DHT22;18374;51.136;3.502;2022-07-18T02:40:16;15.50;99.90
31799;DHT22;18374;51.136;3.502;2022-07-18T02:42:43;15.40;99.90
31799;DHT22;18374;51.136;3.502;2022-07-18T02:45:11;15.30;99.90
31799;DHT22;18374;51.136;3.502;2022-07-18T02:47:39;15.40;99.90
31799;DHT22;18374;51.136;3.502;2022-07-18T02:50:08;15.40;99.90
31799;DHT22;18374;51.136;3.502;2022-07-18T02:52:38;15.30;99.90
31799;DHT22;18374;51.136;3.502;2022-07-18T02:55:07;15.30;99.90
31799;DHT22;18374;51.136;3.502;2022-07-18T02:57:37;15.30;99.90
31799;DHT22;18374;51.136;3.502;2022-07-18T03:00:15;15.30;99.90
31799;DHT22;18374;51.136;3.502;2022-07-18T03:02:44;15.30;99.90
31799;DHT22;18374;51.136;3.502;2022-07-18T03:05:13;15.30;99.90
31799;DHT22;18374;51.136;3.502;2022-07-18T03:07:40;15.30;99.90
31799;DHT22;18374;51.136;3.502;2022-07-18T03:10:09;15.40;99.90
31799;DHT22;18374;51.136;3.502;2022-07-18T03:12:37;15.50;99.90
31799;DHT22;18374;51.136;3.502;2022-07-18T03:15:05;15.40;99.90
31799;DHT22;18374;51.136;3.502;2022-07-18T03:17:32;15.40;99.90
31799;DHT22;18374;51.136;3.502;2022-07-18T03:20:00;15.40;99.90
31799;DHT22;18374;51.136;3.502;2022-07-18T03:22:28;15.50;99.90
31799;DHT22;18374;51.136;3.502;2022-07-18T03:24:56;15.50;99.90
31799;DHT22;18374;51.136;3.502;2022-07-18T03:27:24;15.50;99.90
31799;DHT22;18374;51.136;3.502;2022-07-18T03:29:51;15.50;99.90
31799;DHT22;18374;51.136;3.502;2022-07-18T03:32:19;15.50;99.90
31799;DHT22;18374;51.136;3.502;2022-07-18T03:34:47;15.50;99.90
31799;DHT22;18374;51.136;3.502;2022-07-18T03:37:15;15.40;99.90
31799;DHT22;18374;51.136;3.502;2022-07-18T03:39:42;15.40;99.90
31799;DHT22;18374;51.136;3.502;2022-07-18T03:42:10;15.40;99.90
31799;DHT22;18374;51.136;3.502;2022-07-18T03:44:38;15.40;99.90
31799;DHT22;18374;51.136;3.502;2022-07-18T03:47:06;15.30;99.90
31799;DHT22;18374;51.136;3.502;2022-07-18T03:49:34;15.30;99.90
31799;DHT22;18374;51.136;3.502;2022-07-18T03:52:02;15.30;99.90
31799;DHT22;18374;51.136;3.502;2022-07-18T03:54:30;15.30;99.90
31799;DHT22;18374;51.136;3.502;2022-07-18T03:56:58;15.20;99.90
31799;DHT22;18374;51.136;3.502;2022-07-18T03:59:26;15.10;99.90
31799;DHT22;18374;51.136;3.502;2022-07-18T04:01:54;15.10;99.90
31799;DHT22;18374;51.136;3.502;2022-07-18T04:04:21;15.10;99.90
31799;DHT22;18374;51.136;3.502;2022-07-18T04:06:49;15.10;99.90
31799;DHT22;18374;51.136;3.502;2022-07-18T04:09:17;15.10;99.90
31799;DHT22;18374;51.136;3.502;2022-07-18T04:11:45;15.10;99.90
31799;DHT22;18374;51.136;3.502;2022-07-18T04:14:12;15.10;99.90
31799;DHT22;18374;51.136;3.502;2022-07-18T04:16:40;15.10;99.90
31799;DHT22;18374;51.136;3.502;2022-07-18T04:19:09;15.10;99.90
31799;DHT22;18374;51.136;3.502;2022-07-18T04:21:37;15.10;99.90
31799;DHT22;18374;51.136;3.502;2022-07-18T04:24:04;15.10;99.90
31799;DHT22;18374;51.136;3.502;2022-07-18T04:26:32;15.10;99.90
31799;DHT22;18374;51.136;3.502;2022-07-18T04:29:00;15.10;99.90
31799;DHT22;18374;51.136;3.502;2022-07-18T04:31:28;15.10;99.90
31799;DHT22;18374;51.136;3.502;2022-07-18T04:33:56;15.10;99.90
31799;DHT22;18374;51.136;3.502;2022-07-18T04:36:23;15.20;99.90
31799;DHT22;18374;51.136;3.502;2022-07-18T04:38:53;15.20;99.90
31799;DHT22;18374;51.136;3.502;2022-07-18T04:41:20;15.20;99.90
31799;DHT22;18374;51.136;3.502;2022-07-18T04:43:51;15.20;99.90
31799;DHT22;18374;51.136;3.502;2022-07-18T04:46:19;15.20;99.90
31799;DHT22;18374;51.136;3.502;2022-07-18T04:48:47;15.30;99.90
31799;DHT22;18374;51.136;3.502;2022-07-18T04:51:15;15.30;99.90
31799;DHT22;18374;51.136;3.502;2022-07-18T04:53:43;15.30;99.90
31799;DHT22;18374;51.136;3.502;2022-07-18T04:56:11;15.40;99.90
31799;DHT22;18374;51.136;3.502;2022-07-18T04:58:38;15.40;99.90
31799;DHT22;18374;51.136;3.502;2022-07-18T05:01:06;15.50;99.90
31799;DHT22;18374;51.136;3.502;2022-07-18T05:03:34;15.50;99.90
31799;DHT22;18374;51.136;3.502;2022-07-18T05:06:01;15.60;99.90
31799;DHT22;18374;51.136;3.502;2022-07-18T05:08:29;15.60;99.90
31799;DHT22;18374;51.136;3.502;2022-07-18T05:10:57;15.60;99.90
31799;DHT22;18374;51.136;3.502;2022-07-18T05:13:25;15.70;99.90
31799;DHT22;18374;51.136;3.502;2022-07-18T05:15:53;15.70;99.90
31799;DHT22;18374;51.136;3.502;2022-07-18T05:18:21;15.70;99.90
31799;DHT22;18374;51.136;3.502;2022-07-18T05:20:49;15.80;99.90
31799;DHT22;18374;51.136;3.502;2022-07-18T05:23:17;15.80;99.90
31799;DHT22;18374;51.136;3.502;2022-07-18T05:25:45;15.90;99.90
31799;DHT22;18374;51.136;3.502;2022-07-18T05:28:13;16.00;99.90
31799;DHT22;18374;51.136;3.502;2022-07-18T05:30:40;16.00;99.90
31799;DHT22;18374;51.136;3.502;2022-07-18T05:33:08;16.10;99.90
31799;DHT22;18374;51.136;3.502;2022-07-18T05:35:36;16.20;99.90
31799;DHT22;18374;51.136;3.502;2022-07-18T05:38:04;16.20;99.90
31799;DHT22;18374;51.136;3.502;2022-07-18T05:40:32;16.30;99.90
31799;DHT22;18374;51.136;3.502;2022-07-18T05:43:00;16.30;99.90
31799;DHT22;18374;51.136;3.502;2022-07-18T05:45:27;16.40;99.90
31799;DHT22;18374;51.136;3.502;2022-07-18T05:47:55;16.50;99.90
31799;DHT22;18374;51.136;3.502;2022-07-18T05:50:24;16.60;99.90
31799;DHT22;18374;51.136;3.502;2022-07-18T05:52:52;16.70;99.90
31799;DHT22;18374;51.136;3.502;2022-07-18T05:55:22;16.80;99.90
31799;DHT22;18374;51.136;3.502;2022-07-18T05:57:53;16.90;99.90
31799;DHT22;18374;51.136;3.502;2022-07-18T06:00:23;17.00;99.90
31799;DHT22;18374;51.136;3.502;2022-07-18T06:02:51;17.10;99.90
31799;DHT22;18374;51.136;3.502;2022-07-18T06:05:20;17.20;99.90
31799;DHT22;18374;51.136;3.502;2022-07-18T06:07:53;17.30;99.90
31799;DHT22;18374;51.136;3.502;2022-07-18T06:10:24;17.40;99.90
31799;DHT22;18374;51.136;3.502;2022-07-18T06:12:59;17.50;99.90
31799;DHT22;18374;51.136;3.502;2022-07-18T06:15:27;17.60;99.90
31799;DHT22;18374;51.136;3.502;2022-07-18T06:17:54;17.70;99.90
31799;DHT22;18374;51.136;3.502;2022-07-18T06:20:22;17.80;99.90
31799;DHT22;18374;51.136;3.502;2022-07-18T06:22:50;17.90;99.90
31799;DHT22;18374;51.136;3.502;2022-07-18T06:25:18;18.00;99.90
31799;DHT22;18374;51.136;3.502;2022-07-18T06:27:46;18.10;99.90
31799;DHT22;18374;51.136;3.502;2022-07-18T06:30:13;18.30;99.90
31799;DHT22;18374;51.136;3.502;2022-07-18T06:32:41;18.40;99.90
31799;DHT22;18374;51.136;3.502;2022-07-18T06:35:09;18.50;99.90
31799;DHT22;18374;51.136;3.502;2022-07-18T06:37:37;18.60;99.90
31799;DHT22;18374;51.136;3.502;2022-07-18T06:40:06;18.80;99.90
31799;DHT22;18374;51.136;3.502;2022-07-18T06:42:34;18.90;99.90
31799;DHT22;18374;51.136;3.502;2022-07-18T06:45:03;19.00;99.90
31799;DHT22;18374;51.136;3.502;2022-07-18T06:47:40;19.10;99.90
31799;DHT22;18374;51.136;3.502;2022-07-18T06:50:10;19.20;99.90
31799;DHT22;18374;51.136;3.502;2022-07-18T06:52:44;19.30;99.90
31799;DHT22;18374;51.136;3.502;2022-07-18T06:55:24;19.40;99.90
31799;DHT22;18374;51.136;3.502;2022-07-18T06:57:57;19.50;99.90
31799;DHT22;18374;51.136;3.502;2022-07-18T07:00:52;19.70;99.90
31799;DHT22;18374;51.136;3.502;2022-07-18T07:03:27;19.80;99.90
31799;DHT22;18374;51.136;3.502;2022-07-18T07:06:01;19.90;99.90
31799;DHT22;18374;51.136;3.502;2022-07-18T07:08:42;20.10;99.90
31799;DHT22;18374;51.136;3.502;2022-07-18T07:11:42;20.20;99.90
31799;DHT22;18374;51.136;3.502;2022-07-18T07:14:24;20.40;99.90
31799;DHT22;18374;51.136;3.502;2022-07-18T07:17:15;20.50;99.90
31799;DHT22;18374;51.136;3.502;2022-07-18T07:19:52;20.60;99.90
31799;DHT22;18374;51.136;3.502;2022-07-18T07:22:26;20.70;99.90
31799;DHT22;18374;51.136;3.502;2022-07-18T07:25:18;20.80;99.90
31799;DHT22;18374;51.136;3.502;2022-07-18T07:27:57;21.00;99.90
31799;DHT22;18374;51.136;3.502;2022-07-18T07:30:34;21.20;99.90
31799;DHT22;18374;51.136;3.502;2022-07-18T07:33:10;21.30;99.90
31799;DHT22;18374;51.136;3.502;2022-07-18T07:35:48;21.50;99.90
31799;DHT22;18374;51.136;3.502;2022-07-18T07:38:48;21.60;99.90
31799;DHT22;18374;51.136;3.502;2022-07-18T07:41:31;21.80;99.90
31799;DHT22;18374;51.136;3.502;2022-07-18T07:44:16;22.00;99.90
31799;DHT22;18374;51.136;3.502;2022-07-18T07:46:48;22.10;99.90
31799;DHT22;18374;51.136;3.502;2022-07-18T07:49:24;22.20;99.90
31799;DHT22;18374;51.136;3.502;2022-07-18T07:52:30;22.40;99.90
31799;DHT22;18374;51.136;3.502;2022-07-18T07:55:04;22.60;99.90
31799;DHT22;18374;51.136;3.502;2022-07-18T07:57:53;22.70;99.90
31799;DHT22;18374;51.136;3.502;2022-07-18T08:00:28;22.80;99.90
31799;DHT22;18374;51.136;3.502;2022-07-18T08:03:01;23.10;99.90
31799;DHT22;18374;51.136;3.502;2022-07-18T08:05:48;23.10;99.90
31799;DHT22;18374;51.136;3.502;2022-07-18T08:08:22;23.30;99.90
31799;DHT22;18374;51.136;3.502;2022-07-18T08:11:08;23.50;99.90
31799;DHT22;18374;51.136;3.502;2022-07-18T08:13:40;23.60;99.90
31799;DHT22;18374;51.136;3.502;2022-07-18T08:16:21;23.80;99.90
31799;DHT22;18374;51.136;3.502;2022-07-18T08:18:53;24.00;99.60
31799;DHT22;18374;51.136;3.502;2022-07-18T08:21:53;24.10;99.10
31799;DHT22;18374;51.136;3.502;2022-07-18T08:24:27;24.30;99.00
31799;DHT22;18374;51.136;3.502;2022-07-18T08:27:09;24.40;98.30
31799;DHT22;18374;51.136;3.502;2022-07-18T08:29:42;24.60;98.00
31799;DHT22;18374;51.136;3.502;2022-07-18T08:32:48;24.80;98.20
31799;DHT22;18374;51.136;3.502;2022-07-18T08:35:47;24.80;97.00
31799;DHT22;18374;51.136;3.502;2022-07-18T08:38:43;24.90;96.90
31799;DHT22;18374;51.136;3.502;2022-07-18T08:41:46;25.00;97.60
31799;DHT22;18374;51.136;3.502;2022-07-18T08:45:26;25.10;96.60
31799;DHT22;18374;51.136;3.502;2022-07-18T08:48:14;25.30;96.50
31799;DHT22;18374;51.136;3.502;2022-07-18T08:54:57;25.80;94.90
31799;DHT22;18374;51.136;3.502;2022-07-18T08:57:47;26.00;94.50
31799;DHT22;18374;51.136;3.502;2022-07-18T09:01:02;26.20;94.80
31799;DHT22;18374;51.136;3.502;2022-07-18T09:03:37;26.40;94.90
31799;DHT22;18374;51.136;3.502;2022-07-18T09:06:13;26.50;94.60
31799;DHT22;18374;51.136;3.502;2022-07-18T09:09:00;26.60;92.60
31799;DHT22;18374;51.136;3.502;2022-07-18T09:11:28;26.60;91.80
31799;DHT22;18374;51.136;3.502;2022-07-18T09:14:34;26.70;91.50
31799;DHT22;18374;51.136;3.502;2022-07-18T09:17:08;26.90;92.40
31799;DHT22;18374;51.136;3.502;2022-07-18T09:19:55;27.10;93.20
31799;DHT22;18374;51.136;3.502;2022-07-18T09:22:30;27.20;91.00
31799;DHT22;18374;51.136;3.502;2022-07-18T09:30:28;27.70;89.50
31799;DHT22;18374;51.136;3.502;2022-07-18T09:35:33;27.90;89.70
31799;DHT22;18374;51.136;3.502;2022-07-18T09:38:17;28.10;88.80
31799;DHT22;18374;51.136;3.502;2022-07-18T09:40:52;28.20;84.60
31799;DHT22;18374;51.136;3.502;2022-07-18T09:43:23;28.20;84.10
31799;DHT22;18374;51.136;3.502;2022-07-18T09:45:54;28.40;87.80
31799;DHT22;18374;51.136;3.502;2022-07-18T09:48:25;28.40;86.80
31799;DHT22;18374;51.136;3.502;2022-07-18T09:50:56;28.60;88.70
31799;DHT22;18374;51.136;3.502;2022-07-18T09:53:31;28.70;86.50
31799;DHT22;18374;51.136;3.502;2022-07-18T09:58:36;28.90;82.10
31799;DHT22;18374;51.136;3.502;2022-07-18T10:01:09;28.90;82.50
31799;DHT22;18374;51.136;3.502;2022-07-18T10:03:39;29.10;81.10
31799;DHT22;18374;51.136;3.502;2022-07-18T10:06:07;29.30;81.30
31799;DHT22;18374;51.136;3.502;2022-07-18T10:08:36;29.20;78.00
31799;DHT22;18374;51.136;3.502;2022-07-18T10:11:05;29.30;78.70
31799;DHT22;18374;51.136;3.502;2022-07-18T10:13:35;29.40;79.90
31799;DHT22;18374;51.136;3.502;2022-07-18T10:16:05;29.50;77.20
31799;DHT22;18374;51.136;3.502;2022-07-18T10:18:34;29.60;75.30
31799;DHT22;18374;51.136;3.502;2022-07-18T10:21:13;29.70;76.00
31799;DHT22;18374;51.136;3.502;2022-07-18T10:23:46;29.90;76.40
31799;DHT22;18374;51.136;3.502;2022-07-18T10:26:25;30.00;73.30
31799;DHT22;18374;51.136;3.502;2022-07-18T10:31:35;30.20;72.70
31799;DHT22;18374;51.136;3.502;2022-07-18T10:39:20;30.50;69.40
31799;DHT22;18374;51.136;3.502;2022-07-18T10:47:08;30.80;66.40
31799;DHT22;18374;51.136;3.502;2022-07-18T10:58:14;31.00;64.10
31799;DHT22;18374;51.136;3.502;2022-07-18T11:00:25;31.10;62.50
31799;DHT22;18374;51.136;3.502;2022-07-18T11:03:07;31.20;63.30
31799;DHT22;18374;51.136;3.502;2022-07-18T11:05:42;31.30;62.50
31799;DHT22;18374;51.136;3.502;2022-07-18T11:21:33;31.90;61.50
31799;DHT22;18374;51.136;3.502;2022-07-18T11:24:10;32.00;56.90
31799;DHT22;18374;51.136;3.502;2022-07-18T11:26:46;32.10;57.70
31799;DHT22;18374;51.136;3.502;2022-07-18T11:29:17;32.10;58.10
31799;DHT22;18374;51.136;3.502;2022-07-18T11:31:56;32.30;57.90
31799;DHT22;18374;51.136;3.502;2022-07-18T11:34:25;32.50;57.20
31799;DHT22;18374;51.136;3.502;2022-07-18T11:37:13;32.50;57.00
31799;DHT22;18374;51.136;3.502;2022-07-18T11:39:41;32.60;57.00
31799;DHT22;18374;51.136;3.502;2022-07-18T11:42:09;32.70;57.20
31799;DHT22;18374;51.136;3.502;2022-07-18T11:44:40;32.70;54.50
31799;DHT22;18374;51.136;3.502;2022-07-18T11:47:10;32.80;54.40
31799;DHT22;18374;51.136;3.502;2022-07-18T11:49:39;32.70;54.60
31799;DHT22;18374;51.136;3.502;2022-07-18T11:52:08;32.80;53.70
31799;DHT22;18374;51.136;3.502;2022-07-18T11:54:35;32.90;53.30
31799;DHT22;18374;51.136;3.502;2022-07-18T11:57:03;33.10;53.10
31799;DHT22;18374;51.136;3.502;2022-07-18T11:59:36;33.10;51.20
31799;DHT22;18374;51.136;3.502;2022-07-18T12:02:05;33.10;51.70
31799;DHT22;18374;51.136;3.502;2022-07-18T12:04:33;33.10;50.80
31799;DHT22;18374;51.136;3.502;2022-07-18T12:07:22;33.20;52.80
31799;DHT22;18374;51.136;3.502;2022-07-18T12:09:52;33.20;51.20
31799;DHT22;18374;51.136;3.502;2022-07-18T12:12:21;33.20;52.10
31799;DHT22;18374;51.136;3.502;2022-07-18T12:14:54;33.20;53.00
31799;DHT22;18374;51.136;3.502;2022-07-18T12:17:27;33.20;53.20
31799;DHT22;18374;51.136;3.502;2022-07-18T12:23:08;33.40;51.80
31799;DHT22;18374;51.136;3.502;2022-07-18T12:25:40;33.50;51.90
31799;DHT22;18374;51.136;3.502;2022-07-18T12:28:13;33.50;51.00
31799;DHT22;18374;51.136;3.502;2022-07-18T12:30:41;33.50;51.50
31799;DHT22;18374;51.136;3.502;2022-07-18T12:33:09;33.60;51.60
31799;DHT22;18374;51.136;3.502;2022-07-18T12:35:38;33.70;52.10
31799;DHT22;18374;51.136;3.502;2022-07-18T12:38:14;33.70;50.90
31799;DHT22;18374;51.136;3.502;2022-07-18T12:40:46;33.60;51.40
31799;DHT22;18374;51.136;3.502;2022-07-18T12:45:57;33.60;51.10
31799;DHT22;18374;51.136;3.502;2022-07-18T12:48:27;33.50;50.20
31799;DHT22;18374;51.136;3.502;2022-07-18T12:53:34;33.40;51.30
31799;DHT22;18374;51.136;3.502;2022-07-18T12:56:04;33.40;51.20
31799;DHT22;18374;51.136;3.502;2022-07-18T12:58:32;33.30;49.90
31799;DHT22;18374;51.136;3.502;2022-07-18T13:00:59;33.20;49.30
31799;DHT22;18374;51.136;3.502;2022-07-18T13:03:36;33.20;48.80
31799;DHT22;18374;51.136;3.502;2022-07-18T13:06:04;33.20;48.90
31799;DHT22;18374;51.136;3.502;2022-07-18T13:08:32;33.30;50.40
31799;DHT22;18374;51.136;3.502;2022-07-18T13:11:00;33.30;49.50
31799;DHT22;18374;51.136;3.502;2022-07-18T13:13:28;33.30;49.90
31799;DHT22;18374;51.136;3.502;2022-07-18T13:15:56;33.30;49.50
31799;DHT22;18374;51.136;3.502;2022-07-18T13:18:24;33.20;47.70
31799;DHT22;18374;51.136;3.502;2022-07-18T13:20:52;33.20;48.40
31799;DHT22;18374;51.136;3.502;2022-07-18T13:23:20;33.20;48.20
31799;DHT22;18374;51.136;3.502;2022-07-18T13:25:47;33.20;47.80
31799;DHT22;18374;51.136;3.502;2022-07-18T13:28:15;33.30;48.80
31799;DHT22;18374;51.136;3.502;2022-07-18T13:30:43;33.20;47.50
31799;DHT22;18374;51.136;3.502;2022-07-18T13:33:11;33.30;47.40
31799;DHT22;18374;51.136;3.502;2022-07-18T13:35:39;33.30;47.30
31799;DHT22;18374;51.136;3.502;2022-07-18T13:38:07;33.20;46.70
31799;DHT22;18374;51.136;3.502;2022-07-18T13:40:34;33.20;47.60
31799;DHT22;18374;51.136;3.502;2022-07-18T13:43:02;33.20;48.10
31799;DHT22;18374;51.136;3.502;2022-07-18T13:45:30;33.30;46.40
31799;DHT22;18374;51.136;3.502;2022-07-18T13:47:58;33.30;45.90
31799;DHT22;18374;51.136;3.502;2022-07-18T13:50:26;33.30;46.50
31799;DHT22;18374;51.136;3.502;2022-07-18T13:52:53;33.30;45.90
31799;DHT22;18374;51.136;3.502;2022-07-18T13:55:22;33.20;47.10
31799;DHT22;18374;51.136;3.502;2022-07-18T13:57:50;33.30;48.70
31799;DHT22;18374;51.136;3.502;2022-07-18T14:00:18;33.30;45.50
31799;DHT22;18374;51.136;3.502;2022-07-18T14:02:46;33.40;46.20
31799;DHT22;18374;51.136;3.502;2022-07-18T14:05:14;33.40;46.20
31799;DHT22;18374;51.136;3.502;2022-07-18T14:07:43;33.40;45.80
31799;DHT22;18374;51.136;3.502;2022-07-18T14:10:13;33.40;45.00
31799;DHT22;18374;51.136;3.502;2022-07-18T14:12:42;33.40;45.50
31799;DHT22;18374;51.136;3.502;2022-07-18T14:15:10;33.40;46.10
31799;DHT22;18374;51.136;3.502;2022-07-18T14:17:40;33.40;47.20
31799;DHT22;18374;51.136;3.502;2022-07-18T14:20:09;33.50;46.20
31799;DHT22;18374;51.136;3.502;2022-07-18T14:22:38;33.50;43.50
31799;DHT22;18374;51.136;3.502;2022-07-18T14:25:09;33.60;44.90
31799;DHT22;18374;51.136;3.502;2022-07-18T14:27:39;33.70;44.00
31799;DHT22;18374;51.136;3.502;2022-07-18T14:30:09;33.60;44.40
31799;DHT22;18374;51.136;3.502;2022-07-18T14:32:42;33.60;44.40
31799;DHT22;18374;51.136;3.502;2022-07-18T14:35:10;33.70;45.20
31799;DHT22;18374;51.136;3.502;2022-07-18T14:37:38;33.60;44.60
31799;DHT22;18374;51.136;3.502;2022-07-18T14:40:06;33.60;44.30
31799;DHT22;18374;51.136;3.502;2022-07-18T14:42:35;33.60;45.10
31799;DHT22;18374;51.136;3.502;2022-07-18T14:45:04;33.70;45.70
31799;DHT22;18374;51.136;3.502;2022-07-18T14:47:32;33.70;45.80
31799;DHT22;18374;51.136;3.502;2022-07-18T14:50:03;33.60;46.10
31799;DHT22;18374;51.136;3.502;2022-07-18T14:52:32;33.60;46.20
31799;DHT22;18374;51.136;3.502;2022-07-18T14:54:59;33.50;43.80
31799;DHT22;18374;51.136;3.502;2022-07-18T14:57:27;33.50;44.90
31799;DHT22;18374;51.136;3.502;2022-07-18T14:59:55;33.50;45.10
31799;DHT22;18374;51.136;3.502;2022-07-18T15:02:23;33.50;44.50
31799;DHT22;18374;51.136;3.502;2022-07-18T15:04:51;33.50;44.70
31799;DHT22;18374;51.136;3.502;2022-07-18T15:07:18;33.60;45.40
31799;DHT22;18374;51.136;3.502;2022-07-18T15:09:46;33.60;45.30
31799;DHT22;18374;51.136;3.502;2022-07-18T15:12:14;33.60;45.00
31799;DHT22;18374;51.136;3.502;2022-07-18T15:14:42;33.50;44.40
31799;DHT22;18374;51.136;3.502;2022-07-18T15:17:10;33.50;43.90
31799;DHT22;18374;51.136;3.502;2022-07-18T15:19:38;33.50;43.70
31799;DHT22;18374;51.136;3.502;2022-07-18T15:22:08;33.40;45.30
31799;DHT22;18374;51.136;3.502;2022-07-18T15:24:36;33.40;44.50
31799;DHT22;18374;51.136;3.502;2022-07-18T15:27:04;33.40;45.60
31799;DHT22;18374;51.136;3.502;2022-07-18T15:29:31;33.40;46.20
31799;DHT22;18374;51.136;3.502;2022-07-18T15:32:00;33.40;44.10
31799;DHT22;18374;51.136;3.502;2022-07-18T15:34:30;33.40;44.90
31799;DHT22;18374;51.136;3.502;2022-07-18T15:36:57;33.40;44.90
31799;DHT22;18374;51.136;3.502;2022-07-18T15:39:26;33.40;45.20
31799;DHT22;18374;51.136;3.502;2022-07-18T15:42:01;33.30;44.20
31799;DHT22;18374;51.136;3.502;2022-07-18T15:44:30;33.40;44.20
31799;DHT22;18374;51.136;3.502;2022-07-18T15:47:07;33.30;44.80
31799;DHT22;18374;51.136;3.502;2022-07-18T15:49:37;33.30;45.10
31799;DHT22;18374;51.136;3.502;2022-07-18T15:52:06;33.30;45.10
31799;DHT22;18374;51.136;3.502;2022-07-18T15:54:35;33.30;44.30
31799;DHT22;18374;51.136;3.502;2022-07-18T15:57:03;33.20;44.20
31799;DHT22;18374;51.136;3.502;2022-07-18T15:59:31;33.10;44.20
31799;DHT22;18374;51.136;3.502;2022-07-18T16:01:59;33.10;44.00
31799;DHT22;18374;51.136;3.502;2022-07-18T16:04:27;33.10;43.90
31799;DHT22;18374;51.136;3.502;2022-07-18T16:06:55;33.00;44.40
31799;DHT22;18374;51.136;3.502;2022-07-18T16:09:23;33.00;44.20
31799;DHT22;18374;51.136;3.502;2022-07-18T16:11:51;33.00;46.20
31799;DHT22;18374;51.136;3.502;2022-07-18T16:14:19;32.90;46.40
31799;DHT22;18374;51.136;3.502;2022-07-18T16:16:47;32.80;45.50
31799;DHT22;18374;51.136;3.502;2022-07-18T16:19:15;32.90;45.10
31799;DHT22;18374;51.136;3.502;2022-07-18T16:21:43;32.90;44.80
31799;DHT22;18374;51.136;3.502;2022-07-18T16:24:11;32.90;44.70
31799;DHT22;18374;51.136;3.502;2022-07-18T16:26:38;32.80;44.70
31799;DHT22;18374;51.136;3.502;2022-07-18T16:29:06;32.80;45.80
31799;DHT22;18374;51.136;3.502;2022-07-18T16:31:34;32.80;44.80
31799;DHT22;18374;51.136;3.502;2022-07-18T16:34:03;32.80;45.10
31799;DHT22;18374;51.136;3.502;2022-07-18T16:36:31;32.80;44.60
31799;DHT22;18374;51.136;3.502;2022-07-18T16:38:59;32.80;44.70
31799;DHT22;18374;51.136;3.502;2022-07-18T16:41:28;32.80;45.20
31799;DHT22;18374;51.136;3.502;2022-07-18T16:44:00;32.70;43.90
31799;DHT22;18374;51.136;3.502;2022-07-18T16:46:28;32.70;44.10
31799;DHT22;18374;51.136;3.502;2022-07-18T16:48:56;32.70;44.60
31799;DHT22;18374;51.136;3.502;2022-07-18T16:51:24;32.60;44.70
31799;DHT22;18374;51.136;3.502;2022-07-18T16:53:53;32.60;45.10